Time;durP1;ratioP1;P1;durP2;ratioP2;P2;SDS_P1;SDS_P2;PMS_P1;PMS_P2;Temp;Humidity;BMP_temperature;BMP_pressure;BME280_temperature;BME280_humidity;BME280_pressure;Samples;Min_cycle;Max_cycle;Signal;HPM_P1;HPM_P2
2022/08/07 06:02:58;;;;;;;6.38;1.40;;;;;;;16.36;54.41;97122.16;2083105;28;20588;-67
2022/08/07 06:04:03;;;;;;;4.85;1.58;;;;;;;16.71;53.59;97123.56;2083054;28;20186;-68
2022/08/07 06:05:08;;;;;;;4.07;0.90;;;;;;;17.02;53.13;97134.91;2081329;28;20197;-68
2022/08/07 06:06:16;;;;;;;4.68;1.33;;;;;;;17.26;52.74;97130.69;2078032;28;20360;-68
2022/08/07 06:07:19;;;;;;;5.95;2.50;;;;;;;17.38;52.31;97136.97;2073058;28;20309;-68
2022/08/07 06:08:24;;;;;;;10.30;1.83;;;;;;;17.38;52.30;97130.84;2073366;28;20202;-68
2022/08/07 06:31:03;;;;;;;3.70;1.75;;;;;;;18.69;53.02;97135.34;2099361;27;20559;-67
2022/08/07 06:32:06;;;;;;;3.13;1.70;;;;;;;19.01;52.44;97134.88;2093949;28;20197;-67
2022/08/07 06:33:07;;;;;;;4.68;2.45;;;;;;;18.78;53.46;97133.84;2095258;28;20667;-67
2022/08/07 06:34:16;;;;;;;3.60;1.90;;;;;;;18.75;53.50;97132.25;2094690;28;20197;-68
2022/08/07 06:35:21;;;;;;;3.13;1.58;;;;;;;19.00;52.72;97124.41;2095048;28;20198;-67
2022/08/07 06:36:25;;;;;;;3.95;2.13;;;;;;;19.23;52.51;97126.25;2094733;28;20254;-67
2022/08/07 06:37:37;;;;;;;5.68;1.80;;;;;;;19.39;52.29;97120.69;2094991;28;20195;-67
2022/08/07 06:38:44;;;;;;;5.03;2.78;;;;;;;19.24;53.12;97105.94;2093847;28;20753;-67
2022/08/07 07:00:53;;;;;;;4.30;2.42;;;;;;;18.57;56.50;97130.91;2089971;27;20553;-61
2022/08/07 07:01:56;;;;;;;5.22;2.63;;;;;;;18.53;56.96;97129.44;2078705;28;20216;-61
2022/08/07 07:02:59;;;;;;;4.97;2.38;;;;;;;18.39;57.14;97130.38;2078643;28;20189;-63
2022/08/07 07:04:04;;;;;;;4.07;2.50;;;;;;;18.94;55.46;97125.69;2078722;28;20213;-61
2022/08/07 07:05:25;;;;;;;3.17;2.20;;;;;;;18.92;55.37;97128.44;2077757;28;20201;-61
2022/08/07 07:06:47;;;;;;;10.57;2.40;;;;;;;19.00;54.70;97130.56;2086536;28;20232;-61
2022/08/07 07:08:02;;;;;;;4.53;2.53;;;;;;;19.03;54.70;97129.47;2086566;28;20722;-61
2022/08/07 07:09:22;;;;;;;4.90;2.55;;;;;;;19.37;54.45;97130.53;2084752;28;20193;-64
2022/08/07 07:10:28;;;;;;;3.97;2.08;;;;;;;19.72;53.41;97137.72;2086614;28;20288;-64
2022/08/07 07:11:32;;;;;;;5.03;2.55;;;;;;;19.35;54.05;97134.25;2083978;28;20275;-65
2022/08/07 07:12:58;;;;;;;3.72;1.98;;;;;;;18.50;55.35;97130.47;2086505;28;20229;-64
2022/08/07 07:35:56;;;;;;;4.82;1.67;;;;;;;21.32;47.66;97123.72;2089214;28;20888;-68
2022/08/07 07:37:14;;;;;;;4.72;2.22;;;;;;;21.81;46.94;97126.88;2083426;28;20247;-67
2022/08/07 07:38:35;;;;;;;6.10;2.38;;;;;;;20.78;48.74;97133.31;2082627;28;20324;-61
2022/08/07 07:39:41;;;;;;;8.52;2.10;;;;;;;20.38;49.54;97117.81;2082560;28;20202;-63
2022/08/07 07:40:59;;;;;;;3.70;1.50;;;;;;;20.88;48.95;97125.47;2081790;28;20328;-63
2022/08/07 07:42:04;;;;;;;4.70;1.98;;;;;;;20.67;48.62;97128.81;2082910;28;20225;-64
2022/08/07 07:43:16;;;;;;;6.55;1.65;;;;;;;21.11;48.22;97125.44;2083447;28;20209;-63
2022/08/07 07:44:30;;;;;;;3.17;1.70;;;;;;;21.57;47.22;97132.38;2081006;28;20209;-63
2022/08/07 07:45:31;;;;;;;3.13;1.90;;;;;;;21.62;46.81;97126.69;2083645;28;20208;-70
2022/08/07 07:46:54;;;;;;;2.78;1.77;;;;;;;22.07;45.98;97126.50;2072226;28;20252;-69
2022/08/07 07:48:19;;;;;;;3.60;1.60;;;;;;;22.44;45.18;97126.06;2074692;28;20290;-68
2022/08/07 07:49:37;;;;;;;7.32;1.60;;;;;;;22.74;44.36;97121.75;2077028;28;20233;-68
2022/08/07 07:51:00;;;;;;;2.47;1.60;;;;;;;22.95;43.72;97123.50;2074033;28;20221;-66
2022/08/07 07:52:02;;;;;;;3.35;1.75;;;;;;;21.07;47.20;97122.19;2072340;28;20233;-65
2022/08/07 07:53:10;;;;;;;3.90;1.50;;;;;;;19.88;49.74;97126.00;2073153;28;20198;-65
2022/08/07 08:17:17;;;;;;;4.85;1.40;;;;;;;21.26;46.49;97118.91;2099039;27;20563;-65
2022/08/07 08:18:39;;;;;;;2.78;1.45;;;;;;;21.54;46.96;97119.31;2101582;28;20234;-65
2022/08/07 08:19:48;;;;;;;3.22;1.40;;;;;;;22.21;45.36;97125.34;2096065;28;20199;-66
2022/08/07 08:27:03;;;;;;;2.70;1.58;;;;;;;21.21;46.66;97119.25;2094462;28;21317;-66
2022/08/07 08:27:33;;;;;;;2.95;1.38;;;;;;;22.54;44.45;97115.50;2074896;28;20205;-67
2022/08/07 08:28:38;;;;;;;2.55;1.30;;;;;;;23.14;43.14;97102.25;2073745;28;20256;-67
2022/08/07 08:29:56;;;;;;;3.78;1.20;;;;;;;23.02;43.12;97116.69;2078520;28;20202;-66
2022/08/07 08:31:04;;;;;;;2.28;1.45;;;;;;;23.52;41.89;97123.81;2091284;28;20251;-66
2022/08/07 08:32:09;;;;;;;5.22;1.65;;;;;;;22.00;44.20;97117.34;2091946;28;20503;-66
2022/08/07 08:33:32;;;;;;;2.50;1.50;;;;;;;21.14;45.94;97106.59;2090990;28;20199;-67
2022/08/07 08:34:37;;;;;;;3.28;1.48;;;;;;;21.48;45.97;97114.50;2090841;28;20196;-67
2022/08/07 08:35:40;;;;;;;3.90;1.40;;;;;;;21.28;44.82;97110.81;2091164;28;20205;-66
2022/08/07 08:36:53;;;;;;;6.82;1.50;;;;;;;21.08;44.59;97099.13;2082146;28;20211;-67
2022/08/07 08:38:01;;;;;;;3.38;1.27;;;;;;;21.62;43.79;97111.59;2082196;28;20644;-66
2022/08/07 08:39:08;;;;;;;2.60;1.20;;;;;;;22.18;43.06;97121.13;2083074;28;20206;-66
2022/08/07 08:40:18;;;;;;;5.82;1.52;;;;;;;22.70;41.41;97115.00;2084274;28;20525;-61
2022/08/07 08:41:50;;;;;;;3.17;1.40;;;;;;;23.05;40.08;97110.25;2082966;28;20573;-62
2022/08/07 08:43:26;;;;;;;2.35;1.33;;;;;;;21.33;43.48;97114.78;2081323;28;20201;-61
2022/08/07 08:44:57;;;;;;;2.00;1.10;;;;;;;22.82;41.16;97111.25;2081381;28;20297;-61
2022/08/07 08:46:11;;;;;;;4.68;1.50;;;;;;;22.09;42.70;97111.25;2081754;28;20197;-62
2022/08/07 08:47:25;;;;;;;2.15;1.20;;;;;;;21.61;44.06;97106.41;2082577;28;20259;-61
2022/08/07 09:16:06;;;;;;;2.92;1.17;;;;;;;24.12;35.54;97093.53;2103223;27;20667;-61
2022/08/07 09:17:32;;;;;;;1.70;0.77;;;;;;;24.58;34.98;97091.03;2091499;28;20658;-60
2022/08/07 09:19:08;;;;;;;2.80;1.40;;;;;;;24.06;35.91;97096.78;2093218;28;20210;-61
2022/08/07 09:21:02;;;;;;;1.80;1.05;;;;;;;23.27;38.08;97091.41;2093005;28;20208;-61
2022/08/07 09:22:14;;;;;;;3.13;0.93;;;;;;;23.96;36.73;97094.13;2084785;28;20212;-61
2022/08/07 09:23:54;;;;;;;1.40;0.90;;;;;;;24.97;35.45;97085.56;2082698;28;20679;-63
2022/08/07 09:25:21;;;;;;;2.38;1.00;;;;;;;25.57;33.90;97093.09;2083249;28;20228;-63
2022/08/07 09:26:44;;;;;;;1.83;0.90;;;;;;;25.70;33.72;97092.72;2082805;28;20229;-62
2022/08/07 09:28:09;;;;;;;2.45;1.00;;;;;;;25.60;33.74;97097.31;2083507;28;20276;-62
2022/08/07 09:29:55;;;;;;;2.13;1.10;;;;;;;25.40;33.42;97089.41;2082934;28;20236;-64
2022/08/07 09:31:26;;;;;;;3.25;0.85;;;;;;;25.75;32.66;97102.97;2082625;28;20214;-64
2022/08/07 09:33:01;;;;;;;1.88;0.70;;;;;;;25.96;31.67;97093.78;2082603;28;20193;-64
2022/08/07 09:34:24;;;;;;;1.30;0.63;;;;;;;26.29;31.24;97094.88;2083186;28;20220;-64
2022/08/07 09:35:55;;;;;;;1.88;1.10;;;;;;;26.39;30.79;97094.78;2083217;28;20584;-63
2022/08/07 09:37:24;;;;;;;1.90;0.90;;;;;;;26.45;30.28;97091.50;2090605;28;20717;-62
2022/08/07 09:38:56;;;;;;;1.63;0.70;;;;;;;26.30;31.03;97085.03;2090033;28;20702;-65
2022/08/07 09:40:15;;;;;;;3.00;0.90;;;;;;;25.67;31.07;97094.84;2090726;28;20205;-65
2022/08/07 09:41:40;;;;;;;1.40;0.80;;;;;;;25.40;31.38;97092.09;2091312;28;20691;-65
2022/08/07 09:43:20;;;;;;;38.05;22.02;;;;;;;26.08;30.33;97082.72;2090084;28;20725;-65
2022/08/07 09:44:57;;;;;;;2.58;1.00;;;;;;;24.89;32.24;97086.31;2088740;28;20201;-65
2022/08/07 09:46:49;;;;;;;4.63;0.90;;;;;;;24.70;33.17;97097.09;2088365;28;20228;-64
2022/08/07 09:48:44;;;;;;;10.35;0.80;;;;;;;25.09;31.73;97096.91;2090541;28;20224;-64
2022/08/07 09:50:44;;;;;;;4.03;1.05;;;;;;;23.29;34.24;97088.59;2090799;28;20201;-63
2022/08/07 09:52:03;;;;;;;2.70;1.00;;;;;;;24.83;32.52;97081.56;2082481;28;20769;-62
2022/08/07 09:53:21;;;;;;;1.30;0.80;;;;;;;25.50;30.86;97085.84;2083048;28;20198;-62
2022/08/07 09:54:37;;;;;;;3.78;0.70;;;;;;;25.67;30.62;97063.59;2081512;28;20202;-63
2022/08/07 09:55:54;;;;;;;1.92;0.90;;;;;;;26.36;31.38;97081.72;2082817;28;20220;-62
2022/08/07 10:26:53;;;;;;;2.67;0.70;;;;;;;27.64;28.21;97046.06;2081666;28;21230;-67
2022/08/07 10:28:25;;;;;;;2.88;0.85;;;;;;;26.35;29.54;97043.41;2076651;28;20593;-67
2022/08/07 10:29:53;;;;;;;2.15;0.68;;;;;;;24.42;30.88;97044.44;2066038;28;20207;-66
2022/08/07 10:31:04;;;;;;;2.13;0.88;;;;;;;24.61;31.72;97054.22;2073758;28;20205;-67
2022/08/07 10:32:43;;;;;;;4.15;1.00;;;;;;;23.43;32.36;97047.38;2072810;28;20564;-66
2022/08/07 10:34:05;;;;;;;2.80;0.65;;;;;;;23.61;34.39;97044.84;2073496;28;20201;-66
2022/08/07 10:35:33;;;;;;;1.88;0.70;;;;;;;24.98;32.52;97039.16;2069553;28;20702;-66
2022/08/07 10:37:38;;;;;;;1.10;0.60;;;;;;;26.31;31.19;97039.38;2075231;28;20246;-67
2022/08/07 10:39:09;;;;;;;1.42;0.70;;;;;;;26.40;30.76;97041.09;2075017;28;20232;-66
2022/08/07 10:40:24;;;;;;;1.77;0.77;;;;;;;27.13;29.44;97038.91;2077743;28;20592;-66
2022/08/07 10:41:35;;;;;;;1.85;0.80;;;;;;;27.21;29.50;97038.09;2077486;28;20254;-66
2022/08/07 10:43:19;;;;;;;1.63;0.68;;;;;;;27.80;28.69;97027.28;2079572;28;20205;-66
2022/08/07 10:44:47;;;;;;;2.75;0.70;;;;;;;26.58;29.16;97037.50;2075847;28;20243;-66
2022/08/07 10:46:16;;;;;;;3.25;0.70;;;;;;;26.26;30.13;97038.16;2075163;28;20660;-66
2022/08/07 10:47:25;;;;;;;1.63;0.77;;;;;;;25.97;29.86;97028.59;2078113;28;20201;-66
2022/08/07 10:49:13;;;;;;;1.65;0.70;;;;;;;24.98;30.51;97023.16;2077431;28;20228;-65
2022/08/07 10:50:23;;;;;;;2.63;0.70;;;;;;;25.65;30.15;97028.19;2078524;28;20241;-66
2022/08/07 10:51:51;;;;;;;2.67;0.70;;;;;;;26.67;29.84;97027.69;2077302;28;20221;-65
2022/08/07 10:53:51;;;;;;;2.25;0.73;;;;;;;27.23;28.56;97033.41;2078292;28;20233;-65
2022/08/07 10:55:21;;;;;;;1.50;0.60;;;;;;;26.59;28.49;97033.84;2076410;28;20637;-65
2022/08/07 10:56:48;;;;;;;1.90;0.70;;;;;;;25.74;29.44;97027.25;2076718;28;20619;-65
2022/08/07 10:58:01;;;;;;;1.20;0.63;;;;;;;26.87;28.86;97028.28;2077475;28;20194;-65
2022/08/07 10:59:23;;;;;;;2.78;0.90;;;;;;;27.82;27.75;97029.78;2078029;28;20200;-65
2022/08/07 11:00:40;;;;;;;2.20;0.70;;;;;;;26.75;25.86;97027.72;2078616;28;20204;-65
2022/08/07 11:02:22;;;;;;;6.10;3.00;;;;;;;26.67;27.43;97025.00;2076736;28;20577;-67
2022/08/07 11:04:09;;;;;;;2.67;1.10;;;;;;;28.10;27.34;97024.97;2077960;28;20205;-68
2022/08/07 11:05:51;;;;;;;1.58;0.70;;;;;;;26.31;28.32;97025.13;2074616;28;20207;-66
2022/08/07 11:07:18;;;;;;;1.85;0.90;;;;;;;25.69;29.15;97016.16;2077894;28;20576;-66
2022/08/07 11:09:01;;;;;;;3.58;0.70;;;;;;;27.24;27.78;97018.19;2077648;28;20205;-65
2022/08/07 11:10:09;;;;;;;1.52;0.77;;;;;;;27.30;27.58;97013.00;2077413;28;20193;-66
2022/08/07 11:11:26;;;;;;;4.03;0.90;;;;;;;27.49;27.08;97013.69;2078147;28;20251;-65
2022/08/07 11:12:34;;;;;;;2.35;0.70;;;;;;;27.52;27.82;97013.38;2075771;28;20197;-65
2022/08/07 11:13:48;;;;;;;1.73;0.80;;;;;;;27.90;27.07;97013.72;2074935;28;20214;-65
2022/08/07 11:15:22;;;;;;;1.48;0.70;;;;;;;27.58;26.92;97011.88;2076102;28;20233;-65
2022/08/07 11:16:37;;;;;;;1.50;0.70;;;;;;;27.71;27.34;97001.47;2077722;28;20948;-65
2022/08/07 11:17:51;;;;;;;1.40;0.68;;;;;;;28.62;26.94;97002.16;2079069;28;20209;-65
2022/08/07 11:19:40;;;;;;;1.83;0.82;;;;;;;27.96;27.13;96996.09;2078201;28;20551;-66
2022/08/07 11:20:51;;;;;;;4.75;0.80;;;;;;;29.11;26.10;97001.09;2075394;28;20528;-65
2022/08/07 11:22:14;;;;;;;1.92;0.60;;;;;;;29.76;25.63;96996.31;2072320;28;20214;-66
2022/08/07 11:23:39;;;;;;;3.08;0.80;;;;;;;29.65;25.14;97002.94;2080572;28;20705;-66
2022/08/07 11:24:50;;;;;;;3.17;0.80;;;;;;;30.05;24.85;96989.31;2075972;28;20891;-66
2022/08/07 11:26:15;;;;;;;1.75;0.70;;;;;;;30.44;23.99;96998.19;2072959;28;20305;-65
2022/08/07 11:27:20;;;;;;;1.20;0.60;;;;;;;29.88;24.11;96999.41;2076676;28;20209;-66
2022/08/07 11:28:47;;;;;;;3.33;0.90;;;;;;;29.13;24.70;96999.06;2077815;28;20190;-65
2022/08/07 11:30:09;;;;;;;1.10;0.60;;;;;;;27.94;25.94;96982.84;2073264;28;20747;-65
2022/08/07 11:31:29;;;;;;;1.48;0.60;;;;;;;27.18;26.86;96995.53;2073604;28;20221;-65
2022/08/07 11:33:16;;;;;;;2.55;0.70;;;;;;;26.94;26.62;96982.94;2075875;28;20556;-65
2022/08/07 11:34:23;;;;;;;4.40;0.93;;;;;;;25.91;28.47;96979.22;2077710;28;20556;-66
2022/08/07 11:35:42;;;;;;;3.22;0.75;;;;;;;26.92;27.15;96993.81;2077091;28;20256;-65
2022/08/07 11:37:11;;;;;;;2.17;0.65;;;;;;;27.81;26.22;96993.28;2074929;28;20228;-65
2022/08/07 11:38:26;;;;;;;2.75;0.70;;;;;;;26.81;26.57;96988.75;2069190;28;20206;-65
2022/08/07 11:39:31;;;;;;;1.77;0.70;;;;;;;27.63;25.45;96978.19;2071383;28;20295;-65
2022/08/07 12:13:01;;;;;;;1.35;0.63;;;;;;;28.11;24.26;96974.78;2083704;28;20541;-66
2022/08/07 12:14:21;;;;;;;2.40;1.05;;;;;;;29.12;24.23;96970.50;2078847;28;20204;-65
2022/08/07 12:15:29;;;;;;;1.20;0.63;;;;;;;30.28;23.66;96973.09;2078533;28;20208;-65
2022/08/07 12:16:56;;;;;;;1.40;0.70;;;;;;;31.24;22.43;96972.22;2070325;28;20249;-65
2022/08/07 12:18:40;;;;;;;1.40;0.68;;;;;;;31.08;21.87;96967.94;2068842;28;20198;-66
2022/08/07 12:19:53;;;;;;;1.35;0.60;;;;;;;30.61;21.96;96970.06;2070176;28;20228;-66
2022/08/07 12:21:13;;;;;;;1.00;0.52;;;;;;;31.63;21.82;96967.47;2069312;28;20232;-66
2022/08/07 12:22:48;;;;;;;1.20;0.70;;;;;;;31.38;21.54;96966.97;2070131;28;20237;-66
2022/08/07 12:24:09;;;;;;;2.40;0.85;;;;;;;31.68;21.64;96965.00;2070006;28;20254;-67
2022/08/07 12:25:52;;;;;;;2.10;0.70;;;;;;;31.66;20.90;96972.44;2069266;28;20711;-65
2022/08/07 12:27:17;;;;;;;1.37;0.70;;;;;;;30.41;22.13;96971.59;2070340;28;20464;-66
2022/08/07 12:28:51;;;;;;;1.00;0.60;;;;;;;31.48;21.45;96975.59;2069482;28;20445;-66
2022/08/07 12:30:01;;;;;;;1.60;0.60;;;;;;;32.10;21.51;96964.25;2071900;28;20427;-66
2022/08/07 12:31:16;;;;;;;1.87;0.87;;;;;;;32.52;21.37;96971.41;2072638;28;20430;-67
2022/08/07 12:32:48;;;;;;;1.87;0.63;;;;;;;32.63;21.24;96963.75;2071768;28;20466;-67
2022/08/07 12:33:52;;;;;;;1.43;0.60;;;;;;;32.37;21.24;96958.00;2070972;28;20431;-67
2022/08/07 12:35:01;;;;;;;1.50;0.77;;;;;;;32.47;21.61;96944.16;2071411;28;20470;-66
2022/08/07 12:36:09;;;;;;;2.20;0.90;;;;;;;32.75;20.67;96958.63;2068635;28;21289;-68
2022/08/07 12:37:14;;;;;;;1.50;0.70;;;;;;;32.82;20.97;96957.59;2070554;28;20833;-68
2022/08/07 12:38:26;;;;;;;2.93;0.70;;;;;;;29.81;22.52;96956.22;2070526;28;20789;-67
2022/08/07 12:39:46;;;;;;;2.20;0.70;;;;;;;28.90;24.00;96966.81;2070350;28;20444;-68
2022/08/07 12:40:56;;;;;;;1.30;0.73;;;;;;;29.67;23.90;96951.63;2070061;28;20522;-68
2022/08/07 12:41:58;;;;;;;1.00;0.60;;;;;;;30.86;23.07;96953.53;2070009;28;20455;-68
2022/08/07 12:43:06;;;;;;;1.53;0.80;;;;;;;31.65;22.18;96953.75;2070470;28;20470;-68
2022/08/07 12:44:12;;;;;;;1.20;0.60;;;;;;;32.09;21.91;96947.22;2070218;28;20462;-69
2022/08/07 12:45:29;;;;;;;1.63;0.50;;;;;;;31.50;21.90;96951.94;2070023;28;20937;-68
2022/08/07 12:46:50;;;;;;;1.43;0.60;;;;;;;32.04;21.54;96955.09;2070004;28;20454;-68
2022/08/07 12:48:01;;;;;;;1.20;0.70;;;;;;;31.55;20.93;96945.97;2070446;28;20436;-68
2022/08/07 12:49:26;;;;;;;1.83;0.70;;;;;;;30.00;22.88;96947.84;2070374;28;20431;-68
2022/08/07 12:51:22;;;;;;;1.47;0.70;;;;;;;29.78;23.56;96945.81;2069204;28;20945;-66
2022/08/07 12:52:33;;;;;;;3.50;1.00;;;;;;;31.11;22.88;96950.53;2061740;28;20464;-67
2022/08/07 12:53:52;;;;;;;1.20;0.60;;;;;;;31.82;21.92;96944.34;2066651;28;20427;-67
2022/08/07 12:55:24;;;;;;;2.30;0.80;;;;;;;32.57;21.41;96949.19;2070360;28;20657;-67
2022/08/07 12:56:45;;;;;;;5.60;3.57;;;;;;;31.83;22.00;96946.00;2069807;28;20462;-67
2022/08/07 12:57:58;;;;;;;19.27;13.00;;;;;;;32.80;20.52;96946.19;2070111;28;20458;-67
2022/08/07 12:59:04;;;;;;;2.03;1.10;;;;;;;32.13;20.57;96944.97;2070141;28;20462;-67
2022/08/07 13:00:09;;;;;;;1.67;0.70;;;;;;;31.41;21.85;96934.22;2070262;28;20527;-67
2022/08/07 13:02:12;;;;;;;2.80;1.97;;;;;;;32.25;21.45;96951.50;2069847;28;20490;-68
2022/08/07 13:03:50;;;;;;;7.47;0.77;;;;;;;31.25;21.68;96943.44;2061063;28;20441;-66
2022/08/07 13:05:28;;;;;;;1.93;0.90;;;;;;;31.59;22.05;96945.38;2070130;28;20435;-65
2022/08/07 13:07:05;;;;;;;1.67;0.60;;;;;;;32.08;21.45;96943.69;2069953;28;20451;-67
2022/08/07 13:08:28;;;;;;;3.60;0.73;;;;;;;31.42;22.67;96933.19;2069388;28;20442;-67
2022/08/07 13:09:53;;;;;;;2.00;0.90;;;;;;;29.95;23.38;96940.31;2070311;28;20431;-67
2022/08/07 13:11:33;;;;;;;1.43;0.67;;;;;;;29.83;23.68;96941.72;2069328;28;20454;-66
2022/08/07 13:13:12;;;;;;;1.10;0.60;;;;;;;31.37;22.71;96941.03;2069348;28;20478;-67
2022/08/07 13:14:51;;;;;;;2.63;0.80;;;;;;;32.18;21.76;96934.41;2069783;28;20459;-68
2022/08/07 13:16:14;;;;;;;1.40;0.70;;;;;;;32.57;21.32;96932.97;2068761;28;20434;-69
2022/08/07 13:17:27;;;;;;;1.60;0.60;;;;;;;32.78;21.27;96939.31;2069294;28;20470;-68
2022/08/07 13:19:10;;;;;;;1.00;0.50;;;;;;;33.07;20.66;96935.44;2069896;28;20435;-68
2022/08/07 13:20:45;;;;;;;1.13;0.60;;;;;;;33.22;20.63;96940.69;2070002;28;20836;-69
2022/08/07 13:22:11;;;;;;;2.70;0.63;;;;;;;33.50;20.49;96948.63;2068945;28;20504;-66
2022/08/07 13:23:39;;;;;;;1.13;0.60;;;;;;;33.56;20.54;96935.31;2064069;28;20465;-66
2022/08/07 13:25:16;;;;;;;1.47;0.60;;;;;;;33.95;20.47;96945.31;2063415;28;20427;-67
2022/08/07 13:26:39;;;;;;;1.70;0.60;;;;;;;34.23;19.96;96935.28;2064117;28;20505;-67
2022/08/07 13:27:54;;;;;;;2.93;0.60;;;;;;;33.58;19.63;96928.66;2064778;28;20454;-68
2022/08/07 13:29:20;;;;;;;1.43;0.70;;;;;;;31.98;21.10;96921.59;2064077;28;20490;-68
2022/08/07 13:30:25;;;;;;;0.90;0.63;;;;;;;31.82;21.58;96917.38;2064596;28;20431;-68
2022/08/07 13:31:49;;;;;;;2.37;0.70;;;;;;;32.31;21.53;96922.88;2063661;28;20491;-68
2022/08/07 13:33:08;;;;;;;2.43;1.20;;;;;;;33.24;20.55;96927.75;2064001;28;20462;-66
2022/08/07 13:34:53;;;;;;;21.80;11.70;;;;;;;33.73;20.41;96922.22;2064738;28;20424;-68
2022/08/07 13:36:07;;;;;;;12.87;4.30;;;;;;;33.92;20.08;96926.78;2064031;28;20428;-67
2022/08/07 13:37:31;;;;;;;2.60;1.47;;;;;;;33.93;19.98;96923.03;2064604;28;20921;-68
2022/08/07 13:38:47;;;;;;;2.60;0.70;;;;;;;33.85;20.32;96920.53;2072331;28;20465;-68
2022/08/07 13:40:01;;;;;;;1.67;0.90;;;;;;;34.06;20.00;96914.06;2070433;28;20430;-66
2022/08/07 13:41:41;;;;;;;2.00;0.67;;;;;;;33.62;20.28;96921.78;2064021;28;20459;-70
2022/08/07 14:14:30;;;;;;;1.87;0.80;;;;;;;33.34;20.67;96884.97;2085108;28;21044;-71
2022/08/07 14:15:37;;;;;;;1.93;0.77;;;;;;;33.66;20.81;96893.25;2078947;28;20512;-66
2022/08/07 14:16:45;;;;;;;1.20;0.80;;;;;;;33.63;20.31;96884.72;2079142;28;20477;-66
2022/08/07 14:17:53;;;;;;;1.60;0.70;;;;;;;33.46;20.00;96885.16;2078816;28;20471;-67
2022/08/07 14:19:21;;;;;;;1.30;0.70;;;;;;;33.22;20.72;96879.28;2081361;28;20426;-67
2022/08/07 14:20:49;;;;;;;1.20;0.70;;;;;;;33.62;20.02;96873.06;2081347;28;20433;-67
2022/08/07 14:21:57;;;;;;;1.67;0.60;;;;;;;33.76;20.26;96876.56;2081522;28;20447;-67
2022/08/07 14:23:10;;;;;;;1.37;0.77;;;;;;;33.86;20.01;96881.59;2080099;28;20569;-67
2022/08/07 14:24:26;;;;;;;1.10;0.70;;;;;;;33.98;19.93;96879.06;2092075;28;20467;-67
2022/08/07 14:25:36;;;;;;;1.40;0.70;;;;;;;33.67;19.99;96870.56;2087178;28;20430;-67
2022/08/07 14:26:53;;;;;;;1.43;0.70;;;;;;;34.02;19.79;96869.50;2079366;28;20577;-67
2022/08/07 14:27:56;;;;;;;1.20;0.70;;;;;;;34.04;19.36;96875.50;2080315;28;20473;-68
2022/08/07 14:29:22;;;;;;;2.57;1.47;;;;;;;32.23;21.22;96878.78;2079146;28;20445;-68
2022/08/07 14:30:47;;;;;;;1.87;1.07;;;;;;;33.17;20.49;96872.84;2078178;28;21106;-67
2022/08/07 14:31:53;;;;;;;6.83;3.20;;;;;;;33.27;20.70;96865.16;2080826;28;20528;-68
2022/08/07 14:33:00;;;;;;;1.00;0.60;;;;;;;32.55;20.88;96864.78;2078650;28;20450;-67
2022/08/07 14:34:06;;;;;;;1.13;0.80;;;;;;;31.63;21.77;96867.63;2084712;28;20851;-66
2022/08/07 14:35:17;;;;;;;1.90;0.70;;;;;;;32.53;20.80;96866.84;2077885;28;20913;-67
2022/08/07 14:36:40;;;;;;;1.97;0.60;;;;;;;33.08;20.26;96868.66;2080132;28;20455;-67
2022/08/07 14:37:48;;;;;;;1.00;0.63;;;;;;;33.57;20.30;96869.31;2081597;28;20436;-67
2022/08/07 14:39:07;;;;;;;2.63;1.00;;;;;;;32.74;20.55;96852.38;2080095;28;20460;-67
2022/08/07 14:40:14;;;;;;;1.20;0.60;;;;;;;33.15;20.18;96864.09;2079981;28;20429;-67
2022/08/07 14:41:31;;;;;;;1.40;0.50;;;;;;;32.18;20.67;96866.88;2078077;28;20537;-67
2022/08/07 14:42:55;;;;;;;1.77;0.60;;;;;;;32.14;21.24;96861.06;2079038;28;20460;-65
2022/08/07 14:44:18;;;;;;;1.00;0.53;;;;;;;31.27;21.69;96852.34;2083204;28;20771;-67
2022/08/07 14:45:29;;;;;;;1.30;0.60;;;;;;;30.56;22.34;96858.47;2082202;28;20452;-67
2022/08/07 14:46:54;;;;;;;2.10;0.80;;;;;;;29.65;23.66;96854.16;2083007;28;20445;-67
2022/08/07 14:48:22;;;;;;;1.20;0.83;;;;;;;31.01;22.81;96855.59;2084038;28;20440;-67
2022/08/07 14:49:32;;;;;;;1.77;0.80;;;;;;;32.39;21.84;96861.41;2084784;28;20426;-66
2022/08/07 14:50:58;;;;;;;1.30;0.70;;;;;;;30.48;22.58;96842.44;2083649;28;20426;-66
2022/08/07 14:52:02;;;;;;;1.77;0.67;;;;;;;31.03;22.44;96849.03;2083951;28;20429;-65
2022/08/07 14:53:12;;;;;;;1.00;0.60;;;;;;;32.36;21.74;96855.56;2080065;28;20452;-66
2022/08/07 14:54:36;;;;;;;1.30;0.70;;;;;;;33.36;20.84;96861.22;2081579;28;20503;-66
2022/08/07 14:55:45;;;;;;;1.50;0.70;;;;;;;33.78;20.11;96862.84;2075902;28;20445;-67
2022/08/07 14:57:10;;;;;;;2.00;0.60;;;;;;;34.06;19.65;96856.34;2077280;28;20449;-66
2022/08/07 14:58:26;;;;;;;1.87;0.77;;;;;;;34.47;19.46;96855.16;2082387;28;20423;-66
2022/08/07 14:59:33;;;;;;;1.77;0.80;;;;;;;35.11;19.10;96853.34;2077956;28;20453;-68
2022/08/07 15:00:56;;;;;;;1.07;0.63;;;;;;;34.36;18.93;96858.56;2078337;28;20450;-66
2022/08/07 15:02:10;;;;;;;0.97;0.53;;;;;;;35.17;18.80;96856.25;2081269;28;20425;-65
2022/08/07 15:03:34;;;;;;;1.00;0.60;;;;;;;33.53;19.13;96850.81;2081540;28;20432;-65
2022/08/07 15:04:56;;;;;;;1.20;0.63;;;;;;;32.38;20.63;96854.31;2081518;28;20480;-69
2022/08/07 15:06:02;;;;;;;0.90;0.50;;;;;;;32.97;20.31;96846.59;2082962;28;20434;-65
2022/08/07 15:07:06;;;;;;;2.40;0.60;;;;;;;31.03;21.93;96845.47;2083813;28;20471;-66
2022/08/07 15:08:46;;;;;;;1.00;0.60;;;;;;;31.35;21.93;96849.53;2081466;28;20462;-65
2022/08/07 15:09:54;;;;;;;1.30;1.03;;;;;;;32.96;20.33;96849.50;2077386;28;20450;-66
2022/08/07 15:11:19;;;;;;;1.37;0.67;;;;;;;33.75;20.04;96841.59;2079698;28;20450;-65
2022/08/07 15:12:41;;;;;;;1.23;0.70;;;;;;;33.87;20.15;96850.78;2080772;28;20463;-66
2022/08/07 15:14:00;;;;;;;1.70;0.60;;;;;;;34.16;19.08;96845.91;2080935;28;20500;-66
2022/08/07 15:15:16;;;;;;;2.03;0.60;;;;;;;34.42;19.14;96842.25;2081390;28;20988;-66
2022/08/07 15:16:44;;;;;;;2.67;0.60;;;;;;;35.17;18.36;96842.66;2080870;28;20458;-65
2022/08/07 15:18:03;;;;;;;1.20;0.60;;;;;;;35.21;18.40;96833.03;2080606;28;20429;-65
2022/08/07 15:19:17;;;;;;;1.30;0.60;;;;;;;34.52;19.01;96846.41;2083061;28;20462;-65
2022/08/07 15:20:25;;;;;;;1.77;0.60;;;;;;;34.41;19.24;96837.06;2080474;28;20431;-67
2022/08/07 15:21:47;;;;;;;1.53;0.60;;;;;;;34.27;18.96;96839.81;2088546;28;20460;-65
2022/08/07 15:23:26;;;;;;;1.07;0.60;;;;;;;34.05;19.11;96841.97;2083638;28;20454;-65
2022/08/07 15:24:50;;;;;;;1.27;0.70;;;;;;;34.39;19.35;96831.88;2082134;28;20426;-65
2022/08/07 15:26:13;;;;;;;1.00;0.60;;;;;;;33.38;19.61;96836.66;2075027;28;20650;-67
2022/08/07 15:27:39;;;;;;;3.13;0.80;;;;;;;33.76;19.78;96841.38;2073666;28;20418;-66
2022/08/07 15:29:04;;;;;;;1.90;0.77;;;;;;;33.40;19.57;96839.16;2079020;28;21260;-65
2022/08/07 15:30:27;;;;;;;1.47;0.60;;;;;;;33.56;19.96;96843.28;2076469;28;20455;-65
2022/08/07 15:31:34;;;;;;;1.10;0.60;;;;;;;33.46;19.85;96846.41;2074243;28;20516;-66
2022/08/07 15:32:57;;;;;;;74.93;41.30;;;;;;;33.54;19.37;96840.81;2076750;28;20419;-66
2022/08/07 15:34:20;;;;;;;12.40;7.37;;;;;;;33.72;19.16;96831.22;2073671;28;21037;-65
2022/08/07 15:35:27;;;;;;;31.63;22.53;;;;;;;33.67;19.16;96831.84;2079930;28;20913;-68
2022/08/07 15:36:49;;;;;;;2.63;1.20;;;;;;;33.81;19.56;96833.47;2074309;28;20462;-67
2022/08/07 15:38:08;;;;;;;1.73;0.80;;;;;;;33.94;19.23;96835.34;2073519;28;20475;-65
2022/08/07 15:39:31;;;;;;;1.57;0.80;;;;;;;33.35;19.81;96829.78;2076148;28;20460;-69
2022/08/07 15:40:55;;;;;;;2.63;0.63;;;;;;;33.56;19.90;96824.34;2079523;28;20429;-63
2022/08/07 15:42:46;;;;;;;2.60;0.70;;;;;;;32.97;19.76;96829.56;2077326;28;20450;-68
2022/08/07 15:44:13;;;;;;;5.83;0.70;;;;;;;33.55;19.86;96818.13;2076133;28;20447;-64
2022/08/07 15:45:29;;;;;;;1.27;0.67;;;;;;;33.16;20.01;96831.41;2075561;28;20430;-63
2022/08/07 15:47:02;;;;;;;9.60;0.60;;;;;;;33.54;19.91;96824.56;2075858;28;20827;-65
2022/08/07 15:48:34;;;;;;;2.10;0.60;;;;;;;32.33;20.40;96823.53;2076807;28;20484;-66
2022/08/07 15:49:58;;;;;;;3.73;0.70;;;;;;;31.73;21.13;96830.31;2076910;28;20411;-66
2022/08/07 15:51:22;;;;;;;2.10;0.70;;;;;;;32.35;20.91;96829.59;2075667;28;20450;-64
2022/08/07 15:52:44;;;;;;;4.10;0.87;;;;;;;32.69;20.60;96823.22;2073977;28;20428;-69
2022/08/07 15:53:56;;;;;;;1.10;0.70;;;;;;;32.94;20.44;96824.53;2076798;28;20934;-67
2022/08/07 15:55:06;;;;;;;3.20;0.60;;;;;;;32.73;20.04;96826.34;2075735;28;20477;-70